sensor_id;sensor_type;location;lat;lon;timestamp;P1;durP1;ratioP1;P2;durP2;ratioP2
12412;SDS011;13877;18.896;-99.222;2023-02-04T00:00:58;10.55;;;2.60;;
12412;SDS011;13877;18.896;-99.222;2023-02-04T00:03:26;14.90;;;2.50;;
12412;SDS011;13877;18.896;-99.222;2023-02-04T00:05:53;6.57;;;2.35;;
12412;SDS011;13877;18.896;-99.222;2023-02-04T00:08:20;13.18;;;2.90;;
12412;SDS011;13877;18.896;-99.222;2023-02-04T00:10:47;15.43;;;2.88;;
12412;SDS011;13877;18.896;-99.222;2023-02-04T00:13:14;17.38;;;2.80;;
12412;SDS011;13877;18.896;-99.222;2023-02-04T00:15:42;9.90;;;3.00;;
12412;SDS011;13877;18.896;-99.222;2023-02-04T00:18:09;9.40;;;3.08;;
12412;SDS011;13877;18.896;-99.222;2023-02-04T00:20:36;13.30;;;3.10;;
12412;SDS011;13877;18.896;-99.222;2023-02-04T00:23:03;11.07;;;2.33;;
12412;SDS011;13877;18.896;-99.222;2023-02-04T00:25:32;5.63;;;2.50;;
12412;SDS011;13877;18.896;-99.222;2023-02-04T00:27:59;13.10;;;3.08;;
12412;SDS011;13877;18.896;-99.222;2023-02-04T00:30:26;5.72;;;2.25;;
12412;SDS011;13877;18.896;-99.222;2023-02-04T00:32:52;9.18;;;2.58;;
12412;SDS011;13877;18.896;-99.222;2023-02-04T00:35:24;14.18;;;2.72;;
12412;SDS011;13877;18.896;-99.222;2023-02-04T00:37:51;5.82;;;2.20;;
12412;SDS011;13877;18.896;-99.222;2023-02-04T00:40:19;9.90;;;2.75;;
12412;SDS011;13877;18.896;-99.222;2023-02-04T00:42:46;15.30;;;2.55;;
12412;SDS011;13877;18.896;-99.222;2023-02-04T00:45:13;28.80;;;2.95;;
12412;SDS011;13877;18.896;-99.222;2023-02-04T00:47:40;11.80;;;2.47;;
12412;SDS011;13877;18.896;-99.222;2023-02-04T00:50:07;17.52;;;2.67;;
12412;SDS011;13877;18.896;-99.222;2023-02-04T00:52:35;8.80;;;2.70;;
12412;SDS011;13877;18.896;-99.222;2023-02-04T00:55:02;8.20;;;2.50;;
12412;SDS011;13877;18.896;-99.222;2023-02-04T00:57:30;12.27;;;2.50;;
12412;SDS011;13877;18.896;-99.222;2023-02-04T01:00:00;6.88;;;2.70;;
12412;SDS011;13877;18.896;-99.222;2023-02-04T01:02:27;4.18;;;2.20;;
12412;SDS011;13877;18.896;-99.222;2023-02-04T01:04:54;11.75;;;2.90;;
12412;SDS011;13877;18.896;-99.222;2023-02-04T01:07:21;16.10;;;2.95;;
12412;SDS011;13877;18.896;-99.222;2023-02-04T01:09:51;10.38;;;2.72;;
12412;SDS011;13877;18.896;-99.222;2023-02-04T01:12:18;8.02;;;2.08;;
12412;SDS011;13877;18.896;-99.222;2023-02-04T01:14:47;10.52;;;2.40;;
12412;SDS011;13877;18.896;-99.222;2023-02-04T01:17:14;9.88;;;1.85;;
12412;SDS011;13877;18.896;-99.222;2023-02-04T01:19:43;6.28;;;1.80;;
12412;SDS011;13877;18.896;-99.222;2023-02-04T01:22:09;7.35;;;1.55;;
12412;SDS011;13877;18.896;-99.222;2023-02-04T01:24:39;5.43;;;1.65;;
12412;SDS011;13877;18.896;-99.222;2023-02-04T01:27:35;6.03;;;1.60;;
12412;SDS011;13877;18.896;-99.222;2023-02-04T01:30:03;7.78;;;1.42;;
12412;SDS011;13877;18.896;-99.222;2023-02-04T01:32:33;7.72;;;1.92;;
12412;SDS011;13877;18.896;-99.222;2023-02-04T01:35:00;11.18;;;1.80;;
12412;SDS011;13877;18.896;-99.222;2023-02-04T01:37:28;11.63;;;2.00;;
12412;SDS011;13877;18.896;-99.222;2023-02-04T01:39:55;9.32;;;2.08;;
12412;SDS011;13877;18.896;-99.222;2023-02-04T01:42:22;5.65;;;1.60;;
12412;SDS011;13877;18.896;-99.222;2023-02-04T01:44:49;14.82;;;2.00;;
12412;SDS011;13877;18.896;-99.222;2023-02-04T01:47:20;9.77;;;1.70;;
12412;SDS011;13877;18.896;-99.222;2023-02-04T01:49:49;11.52;;;1.60;;
12412;SDS011;13877;18.896;-99.222;2023-02-04T01:52:22;6.35;;;1.92;;
12412;SDS011;13877;18.896;-99.222;2023-02-04T01:54:51;7.68;;;1.73;;
12412;SDS011;13877;18.896;-99.222;2023-02-04T01:57:19;4.07;;;1.50;;
12412;SDS011;13877;18.896;-99.222;2023-02-04T01:59:53;9.07;;;2.53;;
12412;SDS011;13877;18.896;-99.222;2023-02-04T02:05:09;6.00;;;1.52;;
12412;SDS011;13877;18.896;-99.222;2023-02-04T02:07:41;9.23;;;2.15;;
12412;SDS011;13877;18.896;-99.222;2023-02-04T02:10:10;7.07;;;1.80;;
12412;SDS011;13877;18.896;-99.222;2023-02-04T02:12:39;6.30;;;1.70;;
12412;SDS011;13877;18.896;-99.222;2023-02-04T02:15:07;6.90;;;2.38;;
12412;SDS011;13877;18.896;-99.222;2023-02-04T02:17:35;4.80;;;1.92;;
12412;SDS011;13877;18.896;-99.222;2023-02-04T02:20:04;6.25;;;1.73;;
12412;SDS011;13877;18.896;-99.222;2023-02-04T02:23:20;10.30;;;1.95;;
12412;SDS011;13877;18.896;-99.222;2023-02-04T02:25:32;7.22;;;2.88;;
12412;SDS011;13877;18.896;-99.222;2023-02-04T02:28:00;19.85;;;3.40;;
12412;SDS011;13877;18.896;-99.222;2023-02-04T02:30:27;8.20;;;3.03;;
12412;SDS011;13877;18.896;-99.222;2023-02-04T02:32:57;16.13;;;5.75;;
12412;SDS011;13877;18.896;-99.222;2023-02-04T02:35:24;17.52;;;4.65;;
12412;SDS011;13877;18.896;-99.222;2023-02-04T02:37:51;15.15;;;3.88;;
12412;SDS011;13877;18.896;-99.222;2023-02-04T02:40:19;7.18;;;3.03;;
12412;SDS011;13877;18.896;-99.222;2023-02-04T02:42:47;10.65;;;2.80;;
12412;SDS011;13877;18.896;-99.222;2023-02-04T02:45:20;5.70;;;2.67;;
12412;SDS011;13877;18.896;-99.222;2023-02-04T02:47:50;14.57;;;2.53;;
12412;SDS011;13877;18.896;-99.222;2023-02-04T02:50:19;4.15;;;2.15;;
12412;SDS011;13877;18.896;-99.222;2023-02-04T02:52:48;13.25;;;2.60;;
12412;SDS011;13877;18.896;-99.222;2023-02-04T02:55:17;13.18;;;3.50;;
12412;SDS011;13877;18.896;-99.222;2023-02-04T02:57:46;18.75;;;2.95;;
12412;SDS011;13877;18.896;-99.222;2023-02-04T03:00:16;24.08;;;3.60;;
12412;SDS011;13877;18.896;-99.222;2023-02-04T03:02:44;14.15;;;3.85;;
12412;SDS011;13877;18.896;-99.222;2023-02-04T03:05:13;19.30;;;2.90;;
12412;SDS011;13877;18.896;-99.222;2023-02-04T03:07:41;20.65;;;2.40;;
12412;SDS011;13877;18.896;-99.222;2023-02-04T03:10:08;9.52;;;2.80;;
12412;SDS011;13877;18.896;-99.222;2023-02-04T03:12:36;12.02;;;2.58;;
12412;SDS011;13877;18.896;-99.222;2023-02-04T03:15:04;14.10;;;2.65;;
12412;SDS011;13877;18.896;-99.222;2023-02-04T03:17:33;8.95;;;2.58;;
12412;SDS011;13877;18.896;-99.222;2023-02-04T03:20:00;13.55;;;2.88;;
12412;SDS011;13877;18.896;-99.222;2023-02-04T03:22:29;13.27;;;2.30;;
12412;SDS011;13877;18.896;-99.222;2023-02-04T03:24:56;7.93;;;2.40;;
12412;SDS011;13877;18.896;-99.222;2023-02-04T03:27:23;10.40;;;2.95;;
12412;SDS011;13877;18.896;-99.222;2023-02-04T03:29:50;14.95;;;3.30;;
12412;SDS011;13877;18.896;-99.222;2023-02-04T03:32:18;12.50;;;3.42;;
12412;SDS011;13877;18.896;-99.222;2023-02-04T03:34:45;8.88;;;2.85;;
12412;SDS011;13877;18.896;-99.222;2023-02-04T03:37:15;12.98;;;3.22;;
12412;SDS011;13877;18.896;-99.222;2023-02-04T03:39:42;8.88;;;3.50;;
12412;SDS011;13877;18.896;-99.222;2023-02-04T03:42:09;11.98;;;2.95;;
12412;SDS011;13877;18.896;-99.222;2023-02-04T03:44:36;14.10;;;2.42;;
12412;SDS011;13877;18.896;-99.222;2023-02-04T03:47:04;12.95;;;3.33;;
12412;SDS011;13877;18.896;-99.222;2023-02-04T03:49:30;12.75;;;2.50;;
12412;SDS011;13877;18.896;-99.222;2023-02-04T03:51:57;15.57;;;2.97;;
12412;SDS011;13877;18.896;-99.222;2023-02-04T03:54:26;13.98;;;3.38;;
12412;SDS011;13877;18.896;-99.222;2023-02-04T03:56:53;18.92;;;3.55;;
12412;SDS011;13877;18.896;-99.222;2023-02-04T03:59:20;26.70;;;3.28;;
12412;SDS011;13877;18.896;-99.222;2023-02-04T04:01:47;20.30;;;2.83;;
12412;SDS011;13877;18.896;-99.222;2023-02-04T04:04:14;16.30;;;3.40;;
12412;SDS011;13877;18.896;-99.222;2023-02-04T04:06:41;15.00;;;3.45;;
12412;SDS011;13877;18.896;-99.222;2023-02-04T04:09:07;16.42;;;3.60;;
12412;SDS011;13877;18.896;-99.222;2023-02-04T04:11:35;11.25;;;3.25;;
12412;SDS011;13877;18.896;-99.222;2023-02-04T04:14:01;24.38;;;3.05;;
12412;SDS011;13877;18.896;-99.222;2023-02-04T04:16:30;10.23;;;3.35;;
12412;SDS011;13877;18.896;-99.222;2023-02-04T04:18:57;24.83;;;3.45;;
12412;SDS011;13877;18.896;-99.222;2023-02-04T04:21:24;18.27;;;3.28;;
12412;SDS011;13877;18.896;-99.222;2023-02-04T04:23:51;31.80;;;3.15;;
12412;SDS011;13877;18.896;-99.222;2023-02-04T04:26:18;26.85;;;3.38;;
12412;SDS011;13877;18.896;-99.222;2023-02-04T04:28:45;13.82;;;2.47;;
12412;SDS011;13877;18.896;-99.222;2023-02-04T04:31:12;12.05;;;4.00;;
12412;SDS011;13877;18.896;-99.222;2023-02-04T04:33:39;10.55;;;3.58;;
12412;SDS011;13877;18.896;-99.222;2023-02-04T04:36:07;18.65;;;2.90;;
12412;SDS011;13877;18.896;-99.222;2023-02-04T04:38:34;10.43;;;3.15;;
12412;SDS011;13877;18.896;-99.222;2023-02-04T04:41:01;18.10;;;2.88;;
12412;SDS011;13877;18.896;-99.222;2023-02-04T04:43:28;11.93;;;3.33;;
12412;SDS011;13877;18.896;-99.222;2023-02-04T04:45:56;27.38;;;3.38;;
12412;SDS011;13877;18.896;-99.222;2023-02-04T04:48:23;17.83;;;3.35;;
12412;SDS011;13877;18.896;-99.222;2023-02-04T04:50:50;20.50;;;3.30;;
12412;SDS011;13877;18.896;-99.222;2023-02-04T04:53:17;17.10;;;4.30;;
12412;SDS011;13877;18.896;-99.222;2023-02-04T04:55:44;20.08;;;3.53;;
12412;SDS011;13877;18.896;-99.222;2023-02-04T04:58:13;13.35;;;2.75;;
12412;SDS011;13877;18.896;-99.222;2023-02-04T05:00:40;16.25;;;3.40;;
12412;SDS011;13877;18.896;-99.222;2023-02-04T05:03:07;20.05;;;4.22;;
12412;SDS011;13877;18.896;-99.222;2023-02-04T05:05:34;22.52;;;4.28;;
12412;SDS011;13877;18.896;-99.222;2023-02-04T05:08:05;8.57;;;3.43;;
12412;SDS011;13877;18.896;-99.222;2023-02-04T05:10:38;20.10;;;4.05;;
12412;SDS011;13877;18.896;-99.222;2023-02-04T05:13:05;18.38;;;4.00;;
12412;SDS011;13877;18.896;-99.222;2023-02-04T05:15:33;21.60;;;4.10;;
12412;SDS011;13877;18.896;-99.222;2023-02-04T05:18:00;25.02;;;3.75;;
12412;SDS011;13877;18.896;-99.222;2023-02-04T05:20:27;16.13;;;3.30;;
12412;SDS011;13877;18.896;-99.222;2023-02-04T05:22:54;8.70;;;3.05;;
12412;SDS011;13877;18.896;-99.222;2023-02-04T05:25:22;15.40;;;3.80;;
12412;SDS011;13877;18.896;-99.222;2023-02-04T05:27:49;7.28;;;2.83;;
12412;SDS011;13877;18.896;-99.222;2023-02-04T05:30:16;13.95;;;3.15;;
12412;SDS011;13877;18.896;-99.222;2023-02-04T05:32:43;14.82;;;2.90;;
12412;SDS011;13877;18.896;-99.222;2023-02-04T05:35:09;21.15;;;3.05;;
12412;SDS011;13877;18.896;-99.222;2023-02-04T05:37:37;15.65;;;2.90;;
12412;SDS011;13877;18.896;-99.222;2023-02-04T05:40:04;11.20;;;3.10;;
12412;SDS011;13877;18.896;-99.222;2023-02-04T05:42:34;13.52;;;3.00;;
12412;SDS011;13877;18.896;-99.222;2023-02-04T05:45:01;6.30;;;3.08;;
12412;SDS011;13877;18.896;-99.222;2023-02-04T05:47:29;15.45;;;3.45;;
12412;SDS011;13877;18.896;-99.222;2023-02-04T05:49:56;19.17;;;3.30;;
12412;SDS011;13877;18.896;-99.222;2023-02-04T05:52:23;26.75;;;4.18;;
12412;SDS011;13877;18.896;-99.222;2023-02-04T05:54:50;18.05;;;2.80;;
12412;SDS011;13877;18.896;-99.222;2023-02-04T05:57:18;9.43;;;3.28;;
12412;SDS011;13877;18.896;-99.222;2023-02-04T05:59:44;21.05;;;2.75;;
12412;SDS011;13877;18.896;-99.222;2023-02-04T06:02:12;7.07;;;2.50;;
12412;SDS011;13877;18.896;-99.222;2023-02-04T06:04:38;11.27;;;4.60;;
12412;SDS011;13877;18.896;-99.222;2023-02-04T06:07:06;14.77;;;3.13;;
12412;SDS011;13877;18.896;-99.222;2023-02-04T06:09:32;17.08;;;3.00;;
12412;SDS011;13877;18.896;-99.222;2023-02-04T06:12:00;7.25;;;3.78;;
12412;SDS011;13877;18.896;-99.222;2023-02-04T06:14:27;14.25;;;3.05;;
12412;SDS011;13877;18.896;-99.222;2023-02-04T06:16:54;10.00;;;2.60;;
12412;SDS011;13877;18.896;-99.222;2023-02-04T06:19:21;7.90;;;2.80;;
12412;SDS011;13877;18.896;-99.222;2023-02-04T06:21:48;18.80;;;4.15;;
12412;SDS011;13877;18.896;-99.222;2023-02-04T06:24:14;7.97;;;2.65;;
12412;SDS011;13877;18.896;-99.222;2023-02-04T06:26:41;19.75;;;2.97;;
12412;SDS011;13877;18.896;-99.222;2023-02-04T06:29:08;13.90;;;2.70;;
12412;SDS011;13877;18.896;-99.222;2023-02-04T06:31:35;11.13;;;2.47;;
12412;SDS011;13877;18.896;-99.222;2023-02-04T06:34:04;15.65;;;2.60;;
12412;SDS011;13877;18.896;-99.222;2023-02-04T06:36:31;23.02;;;3.35;;
12412;SDS011;13877;18.896;-99.222;2023-02-04T06:38:58;9.52;;;2.63;;
12412;SDS011;13877;18.896;-99.222;2023-02-04T06:41:25;7.60;;;2.90;;
12412;SDS011;13877;18.896;-99.222;2023-02-04T06:43:52;19.05;;;2.90;;
12412;SDS011;13877;18.896;-99.222;2023-02-04T06:46:20;11.10;;;3.20;;
12412;SDS011;13877;18.896;-99.222;2023-02-04T06:48:47;14.00;;;3.28;;
12412;SDS011;13877;18.896;-99.222;2023-02-04T06:51:14;6.80;;;2.85;;
12412;SDS011;13877;18.896;-99.222;2023-02-04T06:53:41;7.32;;;2.63;;
12412;SDS011;13877;18.896;-99.222;2023-02-04T06:56:10;7.28;;;2.75;;
12412;SDS011;13877;18.896;-99.222;2023-02-04T06:58:37;12.40;;;2.92;;
12412;SDS011;13877;18.896;-99.222;2023-02-04T07:01:04;13.77;;;3.22;;
12412;SDS011;13877;18.896;-99.222;2023-02-04T07:03:32;12.05;;;2.95;;
12412;SDS011;13877;18.896;-99.222;2023-02-04T07:05:59;10.13;;;2.35;;
12412;SDS011;13877;18.896;-99.222;2023-02-04T07:08:26;13.45;;;2.70;;
12412;SDS011;13877;18.896;-99.222;2023-02-04T07:10:53;16.77;;;2.70;;
12412;SDS011;13877;18.896;-99.222;2023-02-04T07:13:20;14.80;;;2.88;;
12412;SDS011;13877;18.896;-99.222;2023-02-04T07:15:47;9.80;;;2.97;;
12412;SDS011;13877;18.896;-99.222;2023-02-04T07:18:14;22.73;;;2.97;;
12412;SDS011;13877;18.896;-99.222;2023-02-04T07:20:41;12.38;;;2.47;;
12412;SDS011;13877;18.896;-99.222;2023-02-04T07:23:08;6.25;;;3.20;;
12412;SDS011;13877;18.896;-99.222;2023-02-04T07:25:35;8.07;;;2.65;;
12412;SDS011;13877;18.896;-99.222;2023-02-04T07:28:03;7.85;;;2.47;;
12412;SDS011;13877;18.896;-99.222;2023-02-04T07:30:31;7.93;;;2.78;;
12412;SDS011;13877;18.896;-99.222;2023-02-04T07:32:58;6.55;;;3.17;;
12412;SDS011;13877;18.896;-99.222;2023-02-04T07:35:25;8.98;;;2.75;;
12412;SDS011;13877;18.896;-99.222;2023-02-04T07:37:52;5.82;;;2.50;;
12412;SDS011;13877;18.896;-99.222;2023-02-04T07:40:19;8.43;;;2.78;;
12412;SDS011;13877;18.896;-99.222;2023-02-04T07:42:46;17.63;;;3.38;;
12412;SDS011;13877;18.896;-99.222;2023-02-04T07:45:17;8.98;;;2.63;;
12412;SDS011;13877;18.896;-99.222;2023-02-04T07:47:44;18.98;;;4.50;;
12412;SDS011;13877;18.896;-99.222;2023-02-04T07:50:10;12.65;;;2.67;;
12412;SDS011;13877;18.896;-99.222;2023-02-04T07:52:38;7.07;;;2.30;;
12412;SDS011;13877;18.896;-99.222;2023-02-04T07:55:05;11.55;;;3.05;;
12412;SDS011;13877;18.896;-99.222;2023-02-04T07:57:33;10.63;;;2.88;;
12412;SDS011;13877;18.896;-99.222;2023-02-04T08:00:00;12.43;;;3.33;;
12412;SDS011;13877;18.896;-99.222;2023-02-04T08:02:27;16.08;;;3.08;;
12412;SDS011;13877;18.896;-99.222;2023-02-04T08:04:53;11.32;;;2.83;;
12412;SDS011;13877;18.896;-99.222;2023-02-04T08:07:21;7.55;;;2.95;;
12412;SDS011;13877;18.896;-99.222;2023-02-04T08:09:47;14.05;;;3.20;;
12412;SDS011;13877;18.896;-99.222;2023-02-04T08:12:15;8.63;;;2.42;;
12412;SDS011;13877;18.896;-99.222;2023-02-04T08:14:41;11.02;;;2.55;;
12412;SDS011;13877;18.896;-99.222;2023-02-04T08:17:09;9.25;;;2.72;;
12412;SDS011;13877;18.896;-99.222;2023-02-04T08:19:36;6.85;;;2.88;;
12412;SDS011;13877;18.896;-99.222;2023-02-04T08:22:04;21.52;;;3.63;;
12412;SDS011;13877;18.896;-99.222;2023-02-04T08:24:31;7.03;;;2.50;;
12412;SDS011;13877;18.896;-99.222;2023-02-04T08:26:58;7.13;;;2.30;;
12412;SDS011;13877;18.896;-99.222;2023-02-04T08:29:25;5.25;;;2.60;;
12412;SDS011;13877;18.896;-99.222;2023-02-04T08:31:52;8.18;;;2.38;;
12412;SDS011;13877;18.896;-99.222;2023-02-04T08:34:19;6.80;;;2.22;;
12412;SDS011;13877;18.896;-99.222;2023-02-04T08:36:46;9.88;;;2.90;;
12412;SDS011;13877;18.896;-99.222;2023-02-04T08:39:13;9.45;;;2.80;;
12412;SDS011;13877;18.896;-99.222;2023-02-04T08:41:40;5.03;;;2.35;;
12412;SDS011;13877;18.896;-99.222;2023-02-04T08:44:06;4.93;;;3.13;;
12412;SDS011;13877;18.896;-99.222;2023-02-04T08:46:33;7.68;;;2.50;;
12412;SDS011;13877;18.896;-99.222;2023-02-04T08:49:00;6.53;;;2.40;;
12412;SDS011;13877;18.896;-99.222;2023-02-04T08:51:28;4.72;;;2.47;;
12412;SDS011;13877;18.896;-99.222;2023-02-04T08:53:54;9.55;;;3.03;;
12412;SDS011;13877;18.896;-99.222;2023-02-04T08:56:22;6.93;;;2.60;;
12412;SDS011;13877;18.896;-99.222;2023-02-04T08:58:49;5.32;;;2.55;;
12412;SDS011;13877;18.896;-99.222;2023-02-04T09:01:18;14.13;;;2.50;;
12412;SDS011;13877;18.896;-99.222;2023-02-04T09:03:45;13.10;;;2.50;;
12412;SDS011;13877;18.896;-99.222;2023-02-04T09:06:12;9.77;;;2.88;;
12412;SDS011;13877;18.896;-99.222;2023-02-04T09:08:39;8.52;;;2.15;;
12412;SDS011;13877;18.896;-99.222;2023-02-04T09:11:07;7.47;;;2.38;;
12412;SDS011;13877;18.896;-99.222;2023-02-04T09:13:35;8.45;;;2.90;;
12412;SDS011;13877;18.896;-99.222;2023-02-04T09:16:05;11.15;;;3.08;;
12412;SDS011;13877;18.896;-99.222;2023-02-04T09:18:33;7.40;;;2.88;;
12412;SDS011;13877;18.896;-99.222;2023-02-04T09:21:00;7.43;;;2.63;;
12412;SDS011;13877;18.896;-99.222;2023-02-04T09:23:27;13.30;;;2.50;;
12412;SDS011;13877;18.896;-99.222;2023-02-04T09:25:54;6.25;;;2.60;;
12412;SDS011;13877;18.896;-99.222;2023-02-04T09:28:21;7.75;;;2.80;;
12412;SDS011;13877;18.896;-99.222;2023-02-04T09:30:50;6.35;;;2.70;;
12412;SDS011;13877;18.896;-99.222;2023-02-04T09:33:16;7.93;;;3.03;;
12412;SDS011;13877;18.896;-99.222;2023-02-04T09:35:44;8.40;;;2.33;;
12412;SDS011;13877;18.896;-99.222;2023-02-04T09:38:11;15.48;;;2.88;;
12412;SDS011;13877;18.896;-99.222;2023-02-04T09:40:43;8.45;;;2.72;;
12412;SDS011;13877;18.896;-99.222;2023-02-04T09:43:17;10.30;;;2.78;;
12412;SDS011;13877;18.896;-99.222;2023-02-04T09:45:53;10.77;;;2.95;;
12412;SDS011;13877;18.896;-99.222;2023-02-04T09:48:21;5.05;;;2.58;;
12412;SDS011;13877;18.896;-99.222;2023-02-04T09:50:50;9.57;;;2.60;;
12412;SDS011;13877;18.896;-99.222;2023-02-04T09:53:20;5.97;;;2.88;;
12412;SDS011;13877;18.896;-99.222;2023-02-04T09:55:50;6.57;;;2.83;;
12412;SDS011;13877;18.896;-99.222;2023-02-04T09:58:18;7.10;;;2.45;;
12412;SDS011;13877;18.896;-99.222;2023-02-04T10:01:11;9.35;;;3.08;;
12412;SDS011;13877;18.896;-99.222;2023-02-04T10:03:38;5.85;;;2.53;;
12412;SDS011;13877;18.896;-99.222;2023-02-04T10:06:12;6.82;;;2.67;;
12412;SDS011;13877;18.896;-99.222;2023-02-04T10:08:44;10.90;;;3.22;;
12412;SDS011;13877;18.896;-99.222;2023-02-04T10:11:13;12.38;;;3.72;;
12412;SDS011;13877;18.896;-99.222;2023-02-04T10:13:46;11.43;;;3.53;;
12412;SDS011;13877;18.896;-99.222;2023-02-04T10:16:26;11.95;;;2.95;;
12412;SDS011;13877;18.896;-99.222;2023-02-04T10:18:59;5.60;;;2.97;;
12412;SDS011;13877;18.896;-99.222;2023-02-04T10:21:29;17.52;;;3.65;;
12412;SDS011;13877;18.896;-99.222;2023-02-04T10:23:58;8.20;;;3.17;;
12412;SDS011;13877;18.896;-99.222;2023-02-04T10:26:28;6.97;;;3.13;;
12412;SDS011;13877;18.896;-99.222;2023-02-04T10:28:58;8.50;;;3.10;;
12412;SDS011;13877;18.896;-99.222;2023-02-04T10:34:01;8.13;;;3.13;;
12412;SDS011;13877;18.896;-99.222;2023-02-04T10:36:33;10.52;;;2.65;;
12412;SDS011;13877;18.896;-99.222;2023-02-04T10:39:03;17.15;;;3.10;;
12412;SDS011;13877;18.896;-99.222;2023-02-04T10:41:35;12.25;;;3.13;;
12412;SDS011;13877;18.896;-99.222;2023-02-04T10:44:08;6.90;;;3.08;;
12412;SDS011;13877;18.896;-99.222;2023-02-04T10:46:36;7.75;;;3.03;;
12412;SDS011;13877;18.896;-99.222;2023-02-04T10:49:24;17.52;;;3.60;;
12412;SDS011;13877;18.896;-99.222;2023-02-04T10:51:51;11.63;;;3.65;;
12412;SDS011;13877;18.896;-99.222;2023-02-04T10:54:19;5.85;;;3.22;;
12412;SDS011;13877;18.896;-99.222;2023-02-04T10:56:59;10.20;;;3.45;;
12412;SDS011;13877;18.896;-99.222;2023-02-04T10:59:51;7.68;;;3.00;;
12412;SDS011;13877;18.896;-99.222;2023-02-04T11:05:18;14.27;;;3.95;;
12412;SDS011;13877;18.896;-99.222;2023-02-04T11:07:50;10.35;;;3.45;;
12412;SDS011;13877;18.896;-99.222;2023-02-04T11:10:34;12.85;;;3.75;;
12412;SDS011;13877;18.896;-99.222;2023-02-04T11:13:05;11.23;;;3.33;;
12412;SDS011;13877;18.896;-99.222;2023-02-04T11:15:46;15.30;;;3.50;;
12412;SDS011;13877;18.896;-99.222;2023-02-04T11:20:48;15.10;;;3.42;;
12412;SDS011;13877;18.896;-99.222;2023-02-04T11:26:12;28.80;;;3.90;;
12412;SDS011;13877;18.896;-99.222;2023-02-04T11:31:58;10.05;;;3.70;;
12412;SDS011;13877;18.896;-99.222;2023-02-04T11:34:43;11.07;;;3.50;;
12412;SDS011;13877;18.896;-99.222;2023-02-04T11:36:56;16.80;;;4.55;;
12412;SDS011;13877;18.896;-99.222;2023-02-04T11:39:38;12.35;;;4.70;;
12412;SDS011;13877;18.896;-99.222;2023-02-04T11:42:23;10.90;;;5.20;;
12412;SDS011;13877;18.896;-99.222;2023-02-04T11:45:00;17.63;;;6.07;;
12412;SDS011;13877;18.896;-99.222;2023-02-04T11:47:39;18.83;;;6.45;;
12412;SDS011;13877;18.896;-99.222;2023-02-04T11:50:21;20.75;;;7.63;;
12412;SDS011;13877;18.896;-99.222;2023-02-04T11:52:56;20.60;;;7.82;;
12412;SDS011;13877;18.896;-99.222;2023-02-04T11:55:24;27.00;;;8.75;;
12412;SDS011;13877;18.896;-99.222;2023-02-04T11:57:53;20.40;;;8.10;;
12412;SDS011;13877;18.896;-99.222;2023-02-04T12:00:22;25.00;;;9.52;;
12412;SDS011;13877;18.896;-99.222;2023-02-04T12:02:55;27.67;;;9.43;;
12412;SDS011;13877;18.896;-99.222;2023-02-04T12:05:35;23.48;;;8.98;;
12412;SDS011;13877;18.896;-99.222;2023-02-04T12:08:09;30.38;;;9.52;;
12412;SDS011;13877;18.896;-99.222;2023-02-04T12:13:28;31.67;;;8.75;;
12412;SDS011;13877;18.896;-99.222;2023-02-04T12:15:57;27.90;;;9.13;;
12412;SDS011;13877;18.896;-99.222;2023-02-04T12:18:28;27.83;;;9.02;;
12412;SDS011;13877;18.896;-99.222;2023-02-04T12:20:56;30.20;;;9.98;;
12412;SDS011;13877;18.896;-99.222;2023-02-04T12:23:24;36.88;;;10.25;;
12412;SDS011;13877;18.896;-99.222;2023-02-04T12:25:52;24.33;;;9.38;;
12412;SDS011;13877;18.896;-99.222;2023-02-04T12:28:19;21.98;;;9.95;;
12412;SDS011;13877;18.896;-99.222;2023-02-04T12:30:46;27.20;;;10.93;;
12412;SDS011;13877;18.896;-99.222;2023-02-04T12:33:13;25.35;;;9.80;;
12412;SDS011;13877;18.896;-99.222;2023-02-04T12:35:41;38.15;;;12.75;;
12412;SDS011;13877;18.896;-99.222;2023-02-04T12:38:08;24.95;;;11.15;;
12412;SDS011;13877;18.896;-99.222;2023-02-04T12:40:36;32.10;;;11.15;;
12412;SDS011;13877;18.896;-99.222;2023-02-04T12:43:04;31.20;;;11.18;;
12412;SDS011;13877;18.896;-99.222;2023-02-04T12:45:31;28.63;;;11.82;;
12412;SDS011;13877;18.896;-99.222;2023-02-04T12:47:59;25.50;;;10.63;;
12412;SDS011;13877;18.896;-99.222;2023-02-04T12:50:26;40.00;;;12.43;;
12412;SDS011;13877;18.896;-99.222;2023-02-04T12:52:54;31.65;;;10.32;;
12412;SDS011;13877;18.896;-99.222;2023-02-04T12:55:23;26.42;;;10.02;;
12412;SDS011;13877;18.896;-99.222;2023-02-04T12:57:51;23.65;;;10.05;;
12412;SDS011;13877;18.896;-99.222;2023-02-04T13:00:19;19.15;;;9.88;;
12412;SDS011;13877;18.896;-99.222;2023-02-04T13:02:48;28.30;;;10.35;;
12412;SDS011;13877;18.896;-99.222;2023-02-04T13:05:15;21.33;;;9.75;;
12412;SDS011;13877;18.896;-99.222;2023-02-04T13:07:43;30.70;;;9.70;;
12412;SDS011;13877;18.896;-99.222;2023-02-04T13:10:10;22.45;;;10.73;;
12412;SDS011;13877;18.896;-99.222;2023-02-04T13:12:38;21.15;;;9.68;;
12412;SDS011;13877;18.896;-99.222;2023-02-04T13:15:05;21.42;;;10.00;;
12412;SDS011;13877;18.896;-99.222;2023-02-04T13:17:33;29.63;;;10.27;;
12412;SDS011;13877;18.896;-99.222;2023-02-04T13:20:00;32.60;;;10.30;;
12412;SDS011;13877;18.896;-99.222;2023-02-04T13:22:27;28.38;;;10.48;;
12412;SDS011;13877;18.896;-99.222;2023-02-04T13:24:59;28.45;;;9.75;;
12412;SDS011;13877;18.896;-99.222;2023-02-04T13:27:26;33.88;;;10.85;;
12412;SDS011;13877;18.896;-99.222;2023-02-04T13:29:54;32.88;;;10.73;;
12412;SDS011;13877;18.896;-99.222;2023-02-04T13:32:21;26.38;;;9.77;;
12412;SDS011;13877;18.896;-99.222;2023-02-04T13:34:48;38.83;;;10.68;;
12412;SDS011;13877;18.896;-99.222;2023-02-04T13:37:15;27.40;;;10.05;;
12412;SDS011;13877;18.896;-99.222;2023-02-04T13:39:42;35.72;;;10.70;;
12412;SDS011;13877;18.896;-99.222;2023-02-04T13:42:09;36.70;;;10.85;;
12412;SDS011;13877;18.896;-99.222;2023-02-04T13:44:36;26.67;;;10.43;;
12412;SDS011;13877;18.896;-99.222;2023-02-04T13:47:04;31.80;;;10.65;;
12412;SDS011;13877;18.896;-99.222;2023-02-04T13:49:31;31.38;;;11.48;;
12412;SDS011;13877;18.896;-99.222;2023-02-04T13:51:58;33.20;;;10.15;;
12412;SDS011;13877;18.896;-99.222;2023-02-04T13:54:25;27.02;;;9.43;;
12412;SDS011;13877;18.896;-99.222;2023-02-04T13:56:52;21.70;;;7.95;;
12412;SDS011;13877;18.896;-99.222;2023-02-04T13:59:19;16.67;;;7.88;;
12412;SDS011;13877;18.896;-99.222;2023-02-04T14:01:46;35.28;;;8.73;;
12412;SDS011;13877;18.896;-99.222;2023-02-04T14:04:13;33.17;;;9.05;;
12412;SDS011;13877;18.896;-99.222;2023-02-04T14:06:40;25.85;;;8.80;;
12412;SDS011;13877;18.896;-99.222;2023-02-04T14:09:10;38.03;;;10.10;;
12412;SDS011;13877;18.896;-99.222;2023-02-04T14:11:37;36.38;;;9.40;;
12412;SDS011;13877;18.896;-99.222;2023-02-04T14:14:05;36.65;;;10.63;;
12412;SDS011;13877;18.896;-99.222;2023-02-04T14:16:32;33.70;;;9.45;;
12412;SDS011;13877;18.896;-99.222;2023-02-04T14:18:59;30.98;;;10.15;;
12412;SDS011;13877;18.896;-99.222;2023-02-04T14:21:26;34.30;;;11.85;;
12412;SDS011;13877;18.896;-99.222;2023-02-04T14:23:53;48.25;;;10.70;;
12412;SDS011;13877;18.896;-99.222;2023-02-04T14:26:20;35.85;;;12.38;;
12412;SDS011;13877;18.896;-99.222;2023-02-04T14:28:47;44.35;;;15.23;;
12412;SDS011;13877;18.896;-99.222;2023-02-04T14:31:14;43.83;;;13.30;;
12412;SDS011;13877;18.896;-99.222;2023-02-04T14:33:41;45.67;;;13.10;;
12412;SDS011;13877;18.896;-99.222;2023-02-04T14:36:08;36.83;;;12.07;;
12412;SDS011;13877;18.896;-99.222;2023-02-04T14:38:35;45.00;;;13.77;;